createdAt,value
2023-05-22T00:04:51.160Z,19.09
2023-05-22T00:09:54.166Z,19.10
2023-05-22T00:14:56.915Z,19.02
2023-05-22T00:20:08.459Z,19.00
2023-05-22T00:25:12.228Z,18.89
2023-05-22T00:30:15.523Z,18.74
2023-05-22T00:35:19.667Z,18.65
2023-05-22T00:40:23.047Z,18.59
2023-05-22T00:45:25.964Z,18.57
2023-05-22T00:50:30.169Z,18.53
2023-05-22T00:55:32.999Z,18.57
2023-05-22T01:00:36.894Z,18.58
2023-05-22T01:05:41.777Z,18.60
2023-05-22T01:10:44.579Z,18.68
2023-05-22T01:15:52.292Z,18.63
2023-05-22T01:21:04.410Z,18.47
2023-05-22T01:26:45.252Z,18.34
2023-05-22T01:31:50.308Z,18.19
2023-05-22T01:36:54.417Z,18.18
2023-05-22T01:41:57.283Z,18.17
2023-05-22T01:47:05.132Z,18.15
2023-05-22T01:52:13.279Z,18.14
2023-05-22T01:57:21.863Z,18.16
2023-05-22T02:02:27.258Z,18.15
2023-05-22T02:07:30.738Z,18.16
2023-05-22T02:12:34.206Z,17.97
2023-05-22T02:17:41.436Z,17.87
2023-05-22T02:22:46.257Z,17.90
2023-05-22T02:27:49.546Z,17.88
2023-05-22T02:32:54.257Z,17.93
2023-05-22T02:37:57.430Z,17.98
2023-05-22T02:43:00.334Z,18.03
2023-05-22T02:48:05.308Z,18.00
2023-05-22T02:53:09.633Z,18.04
2023-05-22T02:58:12.712Z,18.07
2023-05-22T03:03:18.402Z,17.97
2023-05-22T03:08:21.578Z,17.94
2023-05-22T03:13:24.372Z,17.66
2023-05-22T03:18:28.695Z,17.39
2023-05-22T03:23:32.733Z,17.24
2023-05-22T03:28:35.923Z,17.25
2023-05-22T03:33:40.167Z,17.28
2023-05-22T03:38:43.092Z,17.31
2023-05-22T03:43:46.688Z,17.41
2023-05-22T03:48:50.953Z,17.44
2023-05-22T03:53:53.794Z,17.45
2023-05-22T03:58:56.784Z,17.58
2023-05-22T04:04:00.959Z,17.72
2023-05-22T04:09:04.496Z,17.79
2023-05-22T04:14:07.573Z,17.82
2023-05-22T04:19:12.388Z,17.84
2023-05-22T04:24:15.228Z,17.90
2023-05-22T04:29:19.621Z,17.92
2023-05-22T04:34:24.018Z,17.92
2023-05-22T04:39:27.353Z,17.96
2023-05-22T04:44:30.351Z,17.89
2023-05-22T04:49:34.700Z,17.90
2023-05-22T04:54:37.595Z,17.89
2023-05-22T04:59:41.420Z,17.92
2023-05-22T05:04:46.970Z,18.01
2023-05-22T05:09:51.018Z,18.10
2023-05-22T05:14:53.856Z,18.14
2023-05-22T05:19:58.245Z,18.24
2023-05-22T05:25:01.763Z,18.31
2023-05-22T05:30:06.071Z,18.36
2023-05-22T05:35:42.145Z,18.55
2023-05-22T05:40:47.248Z,18.65
2023-05-22T05:45:51.072Z,18.73
2023-05-22T05:50:55.412Z,18.80
2023-05-22T05:55:59.013Z,18.92
2023-05-22T06:01:04.463Z,19.04
2023-05-22T06:06:09.194Z,19.20
2023-05-22T06:11:32.234Z,19.31
2023-05-22T06:16:35.328Z,19.45
2023-05-22T06:21:39.733Z,19.56
2023-05-22T06:26:42.647Z,19.70
2023-05-22T06:31:45.567Z,19.82
2023-05-22T06:36:52.051Z,19.90
2023-05-22T06:41:58.895Z,19.96
2023-05-22T06:47:02.192Z,20.03
2023-05-22T06:52:07.988Z,20.07
2023-05-22T06:57:11.900Z,20.14
2023-05-22T07:02:14.922Z,20.12
2023-05-22T07:07:25.064Z,20.20
2023-05-22T07:12:29.501Z,20.23
2023-05-22T07:17:32.928Z,20.32
2023-05-22T07:22:37.587Z,20.41
2023-05-22T07:27:40.902Z,20.52
2023-05-22T07:32:44.036Z,20.62
2023-05-22T07:37:49.487Z,20.71
2023-05-22T07:42:52.462Z,20.82
2023-05-22T07:47:58.900Z,20.92
2023-05-22T07:53:04.474Z,20.99
2023-05-22T07:58:12.027Z,21.09
2023-05-22T08:03:18.331Z,21.26
2023-05-22T08:08:23.116Z,21.44
2023-05-22T08:13:26.094Z,21.55
2023-05-22T08:18:29.242Z,21.68
2023-05-22T08:23:36.193Z,21.73
2023-05-22T08:28:42.349Z,21.78
2023-05-22T08:33:45.911Z,21.88
2023-05-22T08:38:50.096Z,21.96
2023-05-22T08:43:52.972Z,22.00
2023-05-22T08:48:57.977Z,22.25
2023-05-22T08:54:05.276Z,22.41
2023-05-22T08:59:08.885Z,22.68
2023-05-22T09:04:11.892Z,22.93
2023-05-22T09:09:16.101Z,23.08
2023-05-22T09:14:20.111Z,23.19
2023-05-22T09:19:23.044Z,23.34
2023-05-22T09:24:27.471Z,23.55
2023-05-22T09:29:30.387Z,23.80
2023-05-22T09:34:34.047Z,24.10
2023-05-22T09:39:41.793Z,24.30
2023-05-22T09:44:49.342Z,24.54
2023-05-22T09:49:52.266Z,24.71
2023-05-22T09:54:57.428Z,24.96
2023-05-22T10:00:02.290Z,25.21
2023-05-22T10:05:21.274Z,25.41
2023-05-22T10:10:26.359Z,25.60
2023-05-22T10:15:29.235Z,25.61
2023-05-22T10:20:32.082Z,25.36
2023-05-22T10:25:36.908Z,25.25
2023-05-22T10:30:47.489Z,25.22
2023-05-22T10:36:23.908Z,25.24
2023-05-22T10:41:28.640Z,25.21
2023-05-22T10:46:34.020Z,25.23
2023-05-22T10:51:36.928Z,25.16
2023-05-22T10:56:41.256Z,25.09
2023-05-22T11:01:44.141Z,25.07
2023-05-22T11:07:04.349Z,25.10
2023-05-22T11:12:20.889Z,25.18
2023-05-22T11:17:25.991Z,25.30
2023-05-22T11:22:36.618Z,25.47
2023-05-22T11:27:41.940Z,25.57
2023-05-22T11:32:46.203Z,25.66
2023-05-22T11:37:50.402Z,25.74
2023-05-22T11:42:54.974Z,25.92
2023-05-22T11:47:58.029Z,26.30
2023-05-22T11:53:02.782Z,26.75
2023-05-22T11:58:07.301Z,27.19
2023-05-22T12:03:10.230Z,27.78
2023-05-22T12:08:13.317Z,28.05
2023-05-22T12:13:25.689Z,28.17
2023-05-22T12:18:28.605Z,28.44
2023-05-22T12:23:31.675Z,28.47
2023-05-22T12:28:36.155Z,28.59
2023-05-22T12:33:40.582Z,28.75
2023-05-22T12:38:43.400Z,29.09
2023-05-22T12:43:47.679Z,29.34
2023-05-22T12:48:50.689Z,29.39
2023-05-22T12:53:53.500Z,29.74
2023-05-22T12:58:57.969Z,30.12
2023-05-22T13:04:01.338Z,30.40
2023-05-22T13:09:04.781Z,30.85
2023-05-22T13:14:10.163Z,31.11
2023-05-22T13:19:13.279Z,31.41
2023-05-22T13:24:16.269Z,31.52
2023-05-22T13:29:20.497Z,31.68
2023-05-22T13:34:23.678Z,32.15
2023-05-22T13:39:26.828Z,32.29
2023-05-22T13:44:31.160Z,32.39
2023-05-22T13:49:34.016Z,32.64
2023-05-22T13:54:36.963Z,32.99
2023-05-22T13:59:41.317Z,33.51
2023-05-22T14:04:44.851Z,34.00
2023-05-22T14:09:48.684Z,33.74
2023-05-22T14:14:53.083Z,34.41
2023-05-22T14:19:55.941Z,36.02
2023-05-22T14:24:58.746Z,36.62
2023-05-22T14:30:03.470Z,37.07
2023-05-22T14:35:06.948Z,37.76
2023-05-22T14:40:11.091Z,37.58
2023-05-22T14:45:15.631Z,38.30
2023-05-22T14:50:20.570Z,38.27
2023-05-22T14:55:27.619Z,39.83
2023-05-22T15:00:32.235Z,40.25
2023-05-22T15:05:35.226Z,39.91
2023-05-22T15:10:38.230Z,39.08
2023-05-22T15:15:43.116Z,37.45
2023-05-22T15:20:46.068Z,38.80
2023-05-22T15:25:49.565Z,39.83
2023-05-22T15:30:54.059Z,40.91
2023-05-22T15:35:56.915Z,41.83
2023-05-22T15:40:59.670Z,41.03
2023-05-22T15:46:03.982Z,40.88
2023-05-22T15:51:09.584Z,43.60
2023-05-22T15:56:12.749Z,46.37
2023-05-22T16:01:18.313Z,45.99
2023-05-22T16:06:23.166Z,47.60
2023-05-22T16:11:26.023Z,43.53
2023-05-22T16:16:30.337Z,38.84
2023-05-22T16:21:33.188Z,36.74
2023-05-22T16:26:37.596Z,34.65
2023-05-22T16:31:42.305Z,33.23
2023-05-22T16:36:45.840Z,32.32
2023-05-22T16:41:48.867Z,32.04
2023-05-22T16:46:53.432Z,32.04
2023-05-22T16:51:56.531Z,32.37
2023-05-22T16:56:59.458Z,32.59
2023-05-22T17:02:03.777Z,33.34
2023-05-22T17:07:06.865Z,32.57
2023-05-22T17:12:09.896Z,31.20
2023-05-22T17:17:14.057Z,30.57
2023-05-22T17:22:17.290Z,29.94
2023-05-22T17:27:31.970Z,29.78
2023-05-22T17:32:39.703Z,29.45
2023-05-22T17:37:42.704Z,28.90
2023-05-22T17:42:45.933Z,28.40
2023-05-22T17:47:50.343Z,27.78
2023-05-22T17:52:53.298Z,27.35
2023-05-22T17:57:56.535Z,26.89
2023-05-22T18:03:00.834Z,26.50
2023-05-22T18:08:03.901Z,26.19
2023-05-22T18:13:07.005Z,25.85
2023-05-22T18:18:12.953Z,25.49
2023-05-22T18:23:16.237Z,25.27
2023-05-22T18:28:20.043Z,24.93
2023-05-22T18:33:24.913Z,24.72
2023-05-22T18:38:29.654Z,24.52
2023-05-22T18:43:32.430Z,24.38
2023-05-22T18:48:36.491Z,24.26
2023-05-22T18:53:39.252Z,24.08
2023-05-22T18:58:42.549Z,23.95
2023-05-22T19:03:46.870Z,23.86
2023-05-22T19:08:49.884Z,23.74
2023-05-22T19:13:53.112Z,23.65
2023-05-22T19:18:57.344Z,23.53
2023-05-22T19:24:00.095Z,23.46
2023-05-22T19:29:02.876Z,23.43
2023-05-22T19:34:09.821Z,23.47
2023-05-22T19:39:13.175Z,23.47
2023-05-22T19:44:16.026Z,23.33
2023-05-22T19:49:20.151Z,23.25
2023-05-22T19:54:23.046Z,23.15
2023-05-22T19:59:25.864Z,23.08
2023-05-22T20:04:30.310Z,23.03
2023-05-22T20:09:33.294Z,23.00
2023-05-22T20:14:36.741Z,22.96
2023-05-22T20:19:45.279Z,23.03
2023-05-22T20:24:48.208Z,22.91
2023-05-22T20:29:51.303Z,22.95
2023-05-22T20:34:56.142Z,23.04
2023-05-22T20:40:03.447Z,23.05
2023-05-22T20:45:07.564Z,22.97
2023-05-22T20:50:12.216Z,23.02
2023-05-22T20:55:15.030Z,23.04
2023-05-22T21:00:19.234Z,23.12
2023-05-22T21:05:23.507Z,23.12
2023-05-22T21:10:26.778Z,22.96
2023-05-22T21:15:30.057Z,22.94
2023-05-22T21:20:34.178Z,22.79
2023-05-22T21:25:36.949Z,22.64
2023-05-22T21:30:39.894Z,22.60
2023-05-22T21:35:44.119Z,22.71
2023-05-22T21:40:46.880Z,22.41
2023-05-22T21:45:50.052Z,22.17
2023-05-22T21:50:54.210Z,22.12
2023-05-22T21:55:56.991Z,22.04
2023-05-22T22:00:59.899Z,22.00
2023-05-22T22:06:04.335Z,22.04
2023-05-22T22:11:07.246Z,22.07
2023-05-22T22:16:10.065Z,22.11
2023-05-22T22:21:14.332Z,22.08
2023-05-22T22:26:17.811Z,22.07
2023-05-22T22:31:20.798Z,22.06
2023-05-22T22:36:24.930Z,22.04
2023-05-22T22:41:28.140Z,21.84
2023-05-22T22:46:30.926Z,21.86
2023-05-22T22:51:35.489Z,21.87
2023-05-22T22:56:38.304Z,21.66
2023-05-22T23:01:41.077Z,21.60
2023-05-22T23:06:46.145Z,21.58
2023-05-22T23:11:48.934Z,21.39
2023-05-22T23:16:51.685Z,21.40
2023-05-22T23:21:55.925Z,21.35
2023-05-22T23:26:58.884Z,21.27
2023-05-22T23:32:01.664Z,21.14
2023-05-22T23:37:05.881Z,21.09
2023-05-22T23:42:09.783Z,20.96
2023-05-22T23:47:12.602Z,20.85
2023-05-22T23:52:16.747Z,20.91
2023-05-22T23:57:19.509Z,20.71
